Main page
METAR-TAF:

METAR-TAF

Airports :

Brighton City Airport (Shoreham Airport)

Brighton, England

latitude: 50-50N, longitude: 000-17W, elevation: 2 m

Current weather observation

The report was made 28 minutes ago, at 09:20 UTC
Wind 9 kt from the East/Northeast
Temperature 8°C
Humidity 87%
Pressure 1026 hPa
Visibility: 5000 m
Scattered clouds at a height of 800 ft
haze

METAR: EGKA 170920Z 06009KT 5000 HZ SCT008 08/06 Q1026

Time: 09:48 (09:48 UTC)

Forecast

The report was made 16 minutes ago, at 09:32 UTC
Forecast valid from 17 at 09 UTC to 17 at 15 UTC
Wind 10 kt from the East
Visibility: 6000 m
Scattered clouds at a height of 1200 ft
Becoming
from 17 at 09 UTC to 17 at 11 UTC
Visibility 10 km or more
no clouds below 1500 m and no cumulonimbus

TAF: EGKA 170932Z 1709/1715 10010KT 6000 SCT012 BECMG 1709/1711 CAVOK

Weather observations and forecasts of more than 4000 airports (METAR and TAF reports).

The available stations are represented by yellow and red dots on the map.

Hover mouse over dot to see the name of the station.

Then click to see weather observations and forecasts.

To change the map : click on the green buttons with a black cross to zoom in, on the green button with a dash to zoom out, or on the green arrows for adjacent maps.


METAR-TAF: